sensor_id;sensor_type;location;lat;lon;timestamp;temperature;humidity
40828;DHT22;26549;50.918;5.338;2022-10-16T00:01:59;15.50;99.90
40828;DHT22;26549;50.918;5.338;2022-10-16T00:04:24;15.40;99.90
40828;DHT22;26549;50.918;5.338;2022-10-16T00:06:50;15.40;99.90
40828;DHT22;26549;50.918;5.338;2022-10-16T00:09:16;15.40;99.90
40828;DHT22;26549;50.918;5.338;2022-10-16T00:11:41;15.40;99.90
40828;DHT22;26549;50.918;5.338;2022-10-16T00:14:10;15.50;99.90
40828;DHT22;26549;50.918;5.338;2022-10-16T00:16:37;15.40;99.90
40828;DHT22;26549;50.918;5.338;2022-10-16T00:19:03;15.30;99.90
40828;DHT22;26549;50.918;5.338;2022-10-16T00:21:30;15.20;99.90
40828;DHT22;26549;50.918;5.338;2022-10-16T00:23:59;15.30;99.90
40828;DHT22;26549;50.918;5.338;2022-10-16T00:26:26;15.30;99.90
40828;DHT22;26549;50.918;5.338;2022-10-16T00:28:53;15.40;99.90
40828;DHT22;26549;50.918;5.338;2022-10-16T00:31:21;15.40;99.90
40828;DHT22;26549;50.918;5.338;2022-10-16T00:33:48;15.40;99.90
40828;DHT22;26549;50.918;5.338;2022-10-16T00:36:17;15.30;99.90
40828;DHT22;26549;50.918;5.338;2022-10-16T00:38:43;15.40;99.90
40828;DHT22;26549;50.918;5.338;2022-10-16T00:41:15;15.40;99.90
40828;DHT22;26549;50.918;5.338;2022-10-16T00:43:53;15.40;99.90
40828;DHT22;26549;50.918;5.338;2022-10-16T00:46:25;15.40;99.90
40828;DHT22;26549;50.918;5.338;2022-10-16T00:51:51;15.50;99.90
40828;DHT22;26549;50.918;5.338;2022-10-16T00:54:23;15.40;99.90
40828;DHT22;26549;50.918;5.338;2022-10-16T00:56:50;15.40;99.90
40828;DHT22;26549;50.918;5.338;2022-10-16T00:59:22;15.30;99.90
40828;DHT22;26549;50.918;5.338;2022-10-16T01:01:50;15.30;99.90
40828;DHT22;26549;50.918;5.338;2022-10-16T01:04:16;15.40;99.90
40828;DHT22;26549;50.918;5.338;2022-10-16T01:07:01;15.30;99.90
40828;DHT22;26549;50.918;5.338;2022-10-16T01:15:34;15.20;99.90
40828;DHT22;26549;50.918;5.338;2022-10-16T01:18:03;15.10;99.90
40828;DHT22;26549;50.918;5.338;2022-10-16T01:20:35;15.10;99.90
40828;DHT22;26549;50.918;5.338;2022-10-16T01:28:17;15.00;99.90
40828;DHT22;26549;50.918;5.338;2022-10-16T01:30:45;15.00;99.90
40828;DHT22;26549;50.918;5.338;2022-10-16T01:33:23;15.10;99.90
40828;DHT22;26549;50.918;5.338;2022-10-16T01:35:53;15.00;99.90
40828;DHT22;26549;50.918;5.338;2022-10-16T01:38:30;15.10;99.90
40828;DHT22;26549;50.918;5.338;2022-10-16T01:41:01;15.10;99.90
40828;DHT22;26549;50.918;5.338;2022-10-16T01:43:35;15.10;99.90
40828;DHT22;26549;50.918;5.338;2022-10-16T01:46:03;15.00;99.90
40828;DHT22;26549;50.918;5.338;2022-10-16T01:48:31;14.90;99.90
40828;DHT22;26549;50.918;5.338;2022-10-16T01:51:09;14.80;99.90
40828;DHT22;26549;50.918;5.338;2022-10-16T01:53:38;14.90;99.90
40828;DHT22;26549;50.918;5.338;2022-10-16T01:56:08;14.90;99.90
40828;DHT22;26549;50.918;5.338;2022-10-16T01:58:39;15.00;99.90
40828;DHT22;26549;50.918;5.338;2022-10-16T02:01:07;15.00;99.90
40828;DHT22;26549;50.918;5.338;2022-10-16T02:03:36;15.00;99.90
40828;DHT22;26549;50.918;5.338;2022-10-16T02:06:03;15.00;99.90
40828;DHT22;26549;50.918;5.338;2022-10-16T02:08:30;15.00;99.90
40828;DHT22;26549;50.918;5.338;2022-10-16T02:10:57;14.90;99.90
40828;DHT22;26549;50.918;5.338;2022-10-16T02:13:26;14.90;99.90
40828;DHT22;26549;50.918;5.338;2022-10-16T02:15:52;14.90;99.90
40828;DHT22;26549;50.918;5.338;2022-10-16T02:18:18;14.90;99.90
40828;DHT22;26549;50.918;5.338;2022-10-16T02:20:55;15.00;99.90
40828;DHT22;26549;50.918;5.338;2022-10-16T02:23:37;15.00;99.90
40828;DHT22;26549;50.918;5.338;2022-10-16T02:26:13;15.00;99.90
40828;DHT22;26549;50.918;5.338;2022-10-16T02:28:54;15.00;99.90
40828;DHT22;26549;50.918;5.338;2022-10-16T02:31:26;15.00;99.90
40828;DHT22;26549;50.918;5.338;2022-10-16T02:33:55;14.90;99.90
40828;DHT22;26549;50.918;5.338;2022-10-16T02:36:21;15.00;99.90
40828;DHT22;26549;50.918;5.338;2022-10-16T02:38:47;15.00;99.90
40828;DHT22;26549;50.918;5.338;2022-10-16T02:41:14;15.00;99.90
40828;DHT22;26549;50.918;5.338;2022-10-16T02:43:40;15.00;99.90
40828;DHT22;26549;50.918;5.338;2022-10-16T02:46:05;15.00;99.90
40828;DHT22;26549;50.918;5.338;2022-10-16T02:48:31;15.00;99.90
40828;DHT22;26549;50.918;5.338;2022-10-16T02:50:57;15.10;99.90
40828;DHT22;26549;50.918;5.338;2022-10-16T02:53:23;15.00;99.90
40828;DHT22;26549;50.918;5.338;2022-10-16T02:55:48;15.00;99.90
40828;DHT22;26549;50.918;5.338;2022-10-16T02:58:14;15.00;99.90
40828;DHT22;26549;50.918;5.338;2022-10-16T03:00:40;15.10;99.90
40828;DHT22;26549;50.918;5.338;2022-10-16T03:03:05;15.00;99.90
40828;DHT22;26549;50.918;5.338;2022-10-16T03:05:31;15.00;99.90
40828;DHT22;26549;50.918;5.338;2022-10-16T03:07:57;15.00;99.90
40828;DHT22;26549;50.918;5.338;2022-10-16T03:10:25;15.00;99.90
40828;DHT22;26549;50.918;5.338;2022-10-16T03:12:51;15.00;99.90
40828;DHT22;26549;50.918;5.338;2022-10-16T03:15:17;15.00;99.90
40828;DHT22;26549;50.918;5.338;2022-10-16T03:17:42;15.00;99.90
40828;DHT22;26549;50.918;5.338;2022-10-16T03:20:09;15.00;99.90
40828;DHT22;26549;50.918;5.338;2022-10-16T03:22:34;14.90;99.90
40828;DHT22;26549;50.918;5.338;2022-10-16T03:25:00;14.90;99.90
40828;DHT22;26549;50.918;5.338;2022-10-16T03:27:26;14.90;99.90
40828;DHT22;26549;50.918;5.338;2022-10-16T03:29:52;14.90;99.90
40828;DHT22;26549;50.918;5.338;2022-10-16T03:32:18;14.90;99.90
40828;DHT22;26549;50.918;5.338;2022-10-16T03:34:45;15.00;99.90
40828;DHT22;26549;50.918;5.338;2022-10-16T03:37:11;15.00;99.90
40828;DHT22;26549;50.918;5.338;2022-10-16T03:39:37;15.00;99.90
40828;DHT22;26549;50.918;5.338;2022-10-16T03:42:03;14.90;99.90
40828;DHT22;26549;50.918;5.338;2022-10-16T03:44:30;14.90;99.90
40828;DHT22;26549;50.918;5.338;2022-10-16T03:46:55;14.90;99.90
40828;DHT22;26549;50.918;5.338;2022-10-16T03:49:21;15.00;99.90
40828;DHT22;26549;50.918;5.338;2022-10-16T03:51:47;15.10;99.90
40828;DHT22;26549;50.918;5.338;2022-10-16T03:54:12;15.00;99.90
40828;DHT22;26549;50.918;5.338;2022-10-16T03:56:38;14.90;99.90
40828;DHT22;26549;50.918;5.338;2022-10-16T03:59:04;14.90;99.90
40828;DHT22;26549;50.918;5.338;2022-10-16T04:01:30;15.00;99.90
40828;DHT22;26549;50.918;5.338;2022-10-16T04:03:56;14.90;99.90
40828;DHT22;26549;50.918;5.338;2022-10-16T04:06:21;14.90;99.90
40828;DHT22;26549;50.918;5.338;2022-10-16T04:08:48;14.80;99.90
40828;DHT22;26549;50.918;5.338;2022-10-16T04:11:14;14.80;99.90
40828;DHT22;26549;50.918;5.338;2022-10-16T04:13:40;14.70;99.90
40828;DHT22;26549;50.918;5.338;2022-10-16T04:16:06;14.80;99.90
40828;DHT22;26549;50.918;5.338;2022-10-16T04:18:32;14.70;99.90
40828;DHT22;26549;50.918;5.338;2022-10-16T04:21:07;14.60;99.90
40828;DHT22;26549;50.918;5.338;2022-10-16T04:23:33;14.70;99.90
40828;DHT22;26549;50.918;5.338;2022-10-16T04:26:00;14.80;99.90
40828;DHT22;26549;50.918;5.338;2022-10-16T04:28:26;14.70;99.90
40828;DHT22;26549;50.918;5.338;2022-10-16T04:30:52;14.80;99.90
40828;DHT22;26549;50.918;5.338;2022-10-16T04:33:17;14.80;99.90
40828;DHT22;26549;50.918;5.338;2022-10-16T04:35:43;14.70;99.90
40828;DHT22;26549;50.918;5.338;2022-10-16T04:38:09;14.80;99.90
40828;DHT22;26549;50.918;5.338;2022-10-16T04:40:34;14.60;99.90
40828;DHT22;26549;50.918;5.338;2022-10-16T04:43:04;14.70;99.90
40828;DHT22;26549;50.918;5.338;2022-10-16T04:45:30;14.70;99.90
40828;DHT22;26549;50.918;5.338;2022-10-16T04:47:59;14.80;99.90
40828;DHT22;26549;50.918;5.338;2022-10-16T04:50:25;14.80;99.90
40828;DHT22;26549;50.918;5.338;2022-10-16T04:52:51;14.80;99.90
40828;DHT22;26549;50.918;5.338;2022-10-16T04:55:17;14.90;99.90
40828;DHT22;26549;50.918;5.338;2022-10-16T04:57:42;14.90;99.90
40828;DHT22;26549;50.918;5.338;2022-10-16T05:00:08;14.80;99.90
40828;DHT22;26549;50.918;5.338;2022-10-16T05:02:35;14.90;99.90
40828;DHT22;26549;50.918;5.338;2022-10-16T05:05:00;14.80;99.90
40828;DHT22;26549;50.918;5.338;2022-10-16T05:07:26;14.80;99.90
40828;DHT22;26549;50.918;5.338;2022-10-16T05:09:52;14.80;99.90
40828;DHT22;26549;50.918;5.338;2022-10-16T05:12:19;14.80;99.90
40828;DHT22;26549;50.918;5.338;2022-10-16T05:14:45;14.70;99.90
40828;DHT22;26549;50.918;5.338;2022-10-16T05:17:10;14.80;99.90
40828;DHT22;26549;50.918;5.338;2022-10-16T05:19:36;14.70;99.90
40828;DHT22;26549;50.918;5.338;2022-10-16T05:22:02;14.70;99.90
40828;DHT22;26549;50.918;5.338;2022-10-16T05:24:28;14.80;99.90
40828;DHT22;26549;50.918;5.338;2022-10-16T05:26:54;14.80;99.90
40828;DHT22;26549;50.918;5.338;2022-10-16T05:29:20;14.80;99.90
40828;DHT22;26549;50.918;5.338;2022-10-16T05:31:45;14.80;99.90
40828;DHT22;26549;50.918;5.338;2022-10-16T05:34:11;14.80;99.90
40828;DHT22;26549;50.918;5.338;2022-10-16T05:36:37;14.80;99.90
40828;DHT22;26549;50.918;5.338;2022-10-16T05:39:03;14.80;99.90
40828;DHT22;26549;50.918;5.338;2022-10-16T05:41:29;14.80;99.90
40828;DHT22;26549;50.918;5.338;2022-10-16T05:43:54;14.80;99.90
40828;DHT22;26549;50.918;5.338;2022-10-16T05:46:20;14.70;99.90
40828;DHT22;26549;50.918;5.338;2022-10-16T05:48:46;14.70;99.90
40828;DHT22;26549;50.918;5.338;2022-10-16T05:51:13;14.70;99.90
40828;DHT22;26549;50.918;5.338;2022-10-16T05:53:40;14.70;99.90
40828;DHT22;26549;50.918;5.338;2022-10-16T05:56:07;14.80;99.90
40828;DHT22;26549;50.918;5.338;2022-10-16T05:58:34;14.80;99.90
40828;DHT22;26549;50.918;5.338;2022-10-16T06:01:04;14.70;99.90
40828;DHT22;26549;50.918;5.338;2022-10-16T06:03:31;14.80;99.90
40828;DHT22;26549;50.918;5.338;2022-10-16T06:05:56;14.60;99.90
40828;DHT22;26549;50.918;5.338;2022-10-16T06:08:22;14.70;99.90
40828;DHT22;26549;50.918;5.338;2022-10-16T06:10:49;14.60;99.90
40828;DHT22;26549;50.918;5.338;2022-10-16T06:13:15;14.60;99.90
40828;DHT22;26549;50.918;5.338;2022-10-16T06:15:43;14.60;99.90
40828;DHT22;26549;50.918;5.338;2022-10-16T06:18:09;14.60;99.90
40828;DHT22;26549;50.918;5.338;2022-10-16T06:20:36;14.60;99.90
40828;DHT22;26549;50.918;5.338;2022-10-16T06:23:03;14.50;99.90
40828;DHT22;26549;50.918;5.338;2022-10-16T06:25:30;14.50;99.90
40828;DHT22;26549;50.918;5.338;2022-10-16T06:27:56;14.60;99.90
40828;DHT22;26549;50.918;5.338;2022-10-16T06:30:23;14.60;99.90
40828;DHT22;26549;50.918;5.338;2022-10-16T06:32:49;14.60;99.90
40828;DHT22;26549;50.918;5.338;2022-10-16T06:35:15;14.60;99.90
40828;DHT22;26549;50.918;5.338;2022-10-16T06:37:41;14.60;99.90
40828;DHT22;26549;50.918;5.338;2022-10-16T06:40:07;14.70;99.90
40828;DHT22;26549;50.918;5.338;2022-10-16T06:42:33;14.70;99.90
40828;DHT22;26549;50.918;5.338;2022-10-16T06:44:59;14.70;99.90
40828;DHT22;26549;50.918;5.338;2022-10-16T06:47:25;14.60;99.90
40828;DHT22;26549;50.918;5.338;2022-10-16T06:49:52;14.50;99.90
40828;DHT22;26549;50.918;5.338;2022-10-16T06:52:17;14.50;99.90
40828;DHT22;26549;50.918;5.338;2022-10-16T06:54:43;14.50;99.90
40828;DHT22;26549;50.918;5.338;2022-10-16T06:57:09;14.40;99.90
40828;DHT22;26549;50.918;5.338;2022-10-16T06:59:35;14.50;99.90
40828;DHT22;26549;50.918;5.338;2022-10-16T07:02:00;14.60;99.90
40828;DHT22;26549;50.918;5.338;2022-10-16T07:04:26;14.50;99.90
40828;DHT22;26549;50.918;5.338;2022-10-16T07:06:52;14.60;99.90
40828;DHT22;26549;50.918;5.338;2022-10-16T07:09:17;14.70;99.90
40828;DHT22;26549;50.918;5.338;2022-10-16T07:11:43;14.70;99.90
40828;DHT22;26549;50.918;5.338;2022-10-16T07:14:17;14.80;99.90
40828;DHT22;26549;50.918;5.338;2022-10-16T07:16:43;15.00;99.90
40828;DHT22;26549;50.918;5.338;2022-10-16T07:19:09;14.90;99.90
40828;DHT22;26549;50.918;5.338;2022-10-16T07:21:37;15.10;99.90
40828;DHT22;26549;50.918;5.338;2022-10-16T07:24:05;15.20;99.90
40828;DHT22;26549;50.918;5.338;2022-10-16T07:26:35;15.30;99.90
40828;DHT22;26549;50.918;5.338;2022-10-16T07:29:01;15.30;99.90
40828;DHT22;26549;50.918;5.338;2022-10-16T07:31:27;15.30;99.90
40828;DHT22;26549;50.918;5.338;2022-10-16T07:33:53;15.40;99.90
40828;DHT22;26549;50.918;5.338;2022-10-16T07:36:20;15.40;99.90
40828;DHT22;26549;50.918;5.338;2022-10-16T07:38:46;15.60;99.90
40828;DHT22;26549;50.918;5.338;2022-10-16T07:41:14;15.70;99.90
40828;DHT22;26549;50.918;5.338;2022-10-16T07:43:40;15.70;99.90
40828;DHT22;26549;50.918;5.338;2022-10-16T07:46:06;15.60;99.90
40828;DHT22;26549;50.918;5.338;2022-10-16T07:48:34;15.80;99.90
40828;DHT22;26549;50.918;5.338;2022-10-16T07:51:01;15.80;99.90
40828;DHT22;26549;50.918;5.338;2022-10-16T07:53:28;15.90;99.90
40828;DHT22;26549;50.918;5.338;2022-10-16T07:56:01;15.90;99.90
40828;DHT22;26549;50.918;5.338;2022-10-16T07:58:28;16.00;99.90
40828;DHT22;26549;50.918;5.338;2022-10-16T08:00:55;16.10;99.90
40828;DHT22;26549;50.918;5.338;2022-10-16T08:03:20;16.10;99.90
40828;DHT22;26549;50.918;5.338;2022-10-16T08:05:46;16.20;99.90
40828;DHT22;26549;50.918;5.338;2022-10-16T08:08:13;16.20;99.90
40828;DHT22;26549;50.918;5.338;2022-10-16T08:10:40;16.40;99.90
40828;DHT22;26549;50.918;5.338;2022-10-16T08:13:06;16.50;99.90
40828;DHT22;26549;50.918;5.338;2022-10-16T08:15:33;16.50;99.90
40828;DHT22;26549;50.918;5.338;2022-10-16T08:18:01;16.60;99.90
40828;DHT22;26549;50.918;5.338;2022-10-16T08:20:29;16.60;99.90
40828;DHT22;26549;50.918;5.338;2022-10-16T08:22:55;16.80;99.90
40828;DHT22;26549;50.918;5.338;2022-10-16T08:25:22;16.80;99.90
40828;DHT22;26549;50.918;5.338;2022-10-16T08:27:48;16.90;99.90
40828;DHT22;26549;50.918;5.338;2022-10-16T08:30:16;17.00;99.90
40828;DHT22;26549;50.918;5.338;2022-10-16T08:32:42;17.00;99.90
40828;DHT22;26549;50.918;5.338;2022-10-16T08:35:11;17.10;99.90
40828;DHT22;26549;50.918;5.338;2022-10-16T08:37:37;17.10;99.90
40828;DHT22;26549;50.918;5.338;2022-10-16T08:40:06;17.20;99.90
40828;DHT22;26549;50.918;5.338;2022-10-16T08:50:45;17.50;99.90
40828;DHT22;26549;50.918;5.338;2022-10-16T08:53:20;17.50;99.90
40828;DHT22;26549;50.918;5.338;2022-10-16T08:55:52;17.50;99.90
40828;DHT22;26549;50.918;5.338;2022-10-16T08:58:20;17.70;99.90
40828;DHT22;26549;50.918;5.338;2022-10-16T09:00:58;17.70;99.90
40828;DHT22;26549;50.918;5.338;2022-10-16T09:04:17;17.70;99.90
40828;DHT22;26549;50.918;5.338;2022-10-16T09:12:26;17.80;99.90
40828;DHT22;26549;50.918;5.338;2022-10-16T09:18:12;17.90;99.90
40828;DHT22;26549;50.918;5.338;2022-10-16T09:23:13;18.00;99.90
40828;DHT22;26549;50.918;5.338;2022-10-16T09:25:44;18.00;99.90
40828;DHT22;26549;50.918;5.338;2022-10-16T09:28:10;18.10;99.90
40828;DHT22;26549;50.918;5.338;2022-10-16T09:30:37;18.00;99.90
40828;DHT22;26549;50.918;5.338;2022-10-16T09:33:05;18.10;99.90
40828;DHT22;26549;50.918;5.338;2022-10-16T09:35:36;18.10;99.90
40828;DHT22;26549;50.918;5.338;2022-10-16T09:38:03;18.20;99.90
40828;DHT22;26549;50.918;5.338;2022-10-16T09:40:31;18.30;99.90
40828;DHT22;26549;50.918;5.338;2022-10-16T09:43:40;18.20;99.90
40828;DHT22;26549;50.918;5.338;2022-10-16T09:46:27;18.30;99.90
40828;DHT22;26549;50.918;5.338;2022-10-16T09:49:05;18.30;99.90
40828;DHT22;26549;50.918;5.338;2022-10-16T09:51:33;18.40;99.90
40828;DHT22;26549;50.918;5.338;2022-10-16T09:56:37;18.50;99.90
40828;DHT22;26549;50.918;5.338;2022-10-16T09:59:15;18.60;99.90
40828;DHT22;26549;50.918;5.338;2022-10-16T10:01:48;18.70;99.90
40828;DHT22;26549;50.918;5.338;2022-10-16T10:04:17;18.70;99.90
40828;DHT22;26549;50.918;5.338;2022-10-16T10:09:19;18.70;99.90
40828;DHT22;26549;50.918;5.338;2022-10-16T10:11:49;18.70;99.90
40828;DHT22;26549;50.918;5.338;2022-10-16T10:27:51;19.10;99.90
40828;DHT22;26549;50.918;5.338;2022-10-16T10:46:34;18.80;99.90
40828;DHT22;26549;50.918;5.338;2022-10-16T10:57:35;19.10;99.90
40828;DHT22;26549;50.918;5.338;2022-10-16T11:00:20;19.10;99.90
40828;DHT22;26549;50.918;5.338;2022-10-16T11:06:06;19.20;99.90
40828;DHT22;26549;50.918;5.338;2022-10-16T11:11:25;19.50;99.90
40828;DHT22;26549;50.918;5.338;2022-10-16T11:13:55;19.50;99.90
40828;DHT22;26549;50.918;5.338;2022-10-16T11:16:33;19.60;99.90
40828;DHT22;26549;50.918;5.338;2022-10-16T11:21:54;19.80;99.90
40828;DHT22;26549;50.918;5.338;2022-10-16T11:24:30;19.70;99.90
40828;DHT22;26549;50.918;5.338;2022-10-16T11:27:04;19.60;99.90
40828;DHT22;26549;50.918;5.338;2022-10-16T11:29:35;19.50;99.90
40828;DHT22;26549;50.918;5.338;2022-10-16T11:32:24;19.30;99.90
40828;DHT22;26549;50.918;5.338;2022-10-16T11:35:02;19.40;99.90
40828;DHT22;26549;50.918;5.338;2022-10-16T11:37:38;19.40;99.90
40828;DHT22;26549;50.918;5.338;2022-10-16T11:42:46;19.50;99.90
40828;DHT22;26549;50.918;5.338;2022-10-16T11:45:29;19.40;99.90
40828;DHT22;26549;50.918;5.338;2022-10-16T11:48:18;19.30;99.90
40828;DHT22;26549;50.918;5.338;2022-10-16T11:51:38;19.30;99.90
40828;DHT22;26549;50.918;5.338;2022-10-16T11:57:33;19.70;99.90
40828;DHT22;26549;50.918;5.338;2022-10-16T12:08:16;19.60;99.90
40828;DHT22;26549;50.918;5.338;2022-10-16T12:10:44;19.60;99.90
40828;DHT22;26549;50.918;5.338;2022-10-16T12:13:37;19.60;99.90
40828;DHT22;26549;50.918;5.338;2022-10-16T12:16:07;19.60;99.90
40828;DHT22;26549;50.918;5.338;2022-10-16T12:18:45;19.80;99.90
40828;DHT22;26549;50.918;5.338;2022-10-16T12:21:13;19.80;99.90
40828;DHT22;26549;50.918;5.338;2022-10-16T12:23:58;19.90;99.90
40828;DHT22;26549;50.918;5.338;2022-10-16T12:26:31;19.70;99.90
40828;DHT22;26549;50.918;5.338;2022-10-16T12:31:48;19.80;99.90
40828;DHT22;26549;50.918;5.338;2022-10-16T12:34:42;19.60;99.90
40828;DHT22;26549;50.918;5.338;2022-10-16T12:37:30;19.80;99.90
40828;DHT22;26549;50.918;5.338;2022-10-16T12:39:57;20.00;99.90
40828;DHT22;26549;50.918;5.338;2022-10-16T12:44:54;20.20;99.90
40828;DHT22;26549;50.918;5.338;2022-10-16T12:49:55;20.30;99.90
40828;DHT22;26549;50.918;5.338;2022-10-16T12:54:59;20.00;99.90
40828;DHT22;26549;50.918;5.338;2022-10-16T12:57:57;19.90;99.90
40828;DHT22;26549;50.918;5.338;2022-10-16T13:00:36;19.80;99.90
40828;DHT22;26549;50.918;5.338;2022-10-16T13:09:11;20.00;99.90
40828;DHT22;26549;50.918;5.338;2022-10-16T13:12:11;20.00;99.90
40828;DHT22;26549;50.918;5.338;2022-10-16T13:15:17;20.00;99.90
40828;DHT22;26549;50.918;5.338;2022-10-16T13:18:13;19.90;99.90
40828;DHT22;26549;50.918;5.338;2022-10-16T13:23:48;20.00;99.90
40828;DHT22;26549;50.918;5.338;2022-10-16T13:28:45;19.90;99.90
40828;DHT22;26549;50.918;5.338;2022-10-16T13:31:21;19.90;99.90
40828;DHT22;26549;50.918;5.338;2022-10-16T13:33:52;19.90;99.90
40828;DHT22;26549;50.918;5.338;2022-10-16T13:36:26;19.90;99.90
40828;DHT22;26549;50.918;5.338;2022-10-16T13:39:11;19.80;99.90
40828;DHT22;26549;50.918;5.338;2022-10-16T13:41:37;19.70;99.90
40828;DHT22;26549;50.918;5.338;2022-10-16T13:44:04;19.90;99.90
40828;DHT22;26549;50.918;5.338;2022-10-16T13:46:30;20.00;99.90
40828;DHT22;26549;50.918;5.338;2022-10-16T13:49:05;20.00;99.90
40828;DHT22;26549;50.918;5.338;2022-10-16T13:51:32;20.00;99.90
40828;DHT22;26549;50.918;5.338;2022-10-16T13:53:58;20.10;99.90
40828;DHT22;26549;50.918;5.338;2022-10-16T13:56:30;20.10;99.90
40828;DHT22;26549;50.918;5.338;2022-10-16T13:59:03;20.00;99.90
40828;DHT22;26549;50.918;5.338;2022-10-16T14:01:35;19.90;99.90
40828;DHT22;26549;50.918;5.338;2022-10-16T14:04:10;19.80;99.90
40828;DHT22;26549;50.918;5.338;2022-10-16T14:06:41;19.70;99.90
40828;DHT22;26549;50.918;5.338;2022-10-16T14:09:24;19.80;99.90
40828;DHT22;26549;50.918;5.338;2022-10-16T14:12:07;19.90;99.90
40828;DHT22;26549;50.918;5.338;2022-10-16T14:14:49;19.90;99.90
40828;DHT22;26549;50.918;5.338;2022-10-16T14:17:28;20.00;99.90
40828;DHT22;26549;50.918;5.338;2022-10-16T14:19:57;20.00;99.90
40828;DHT22;26549;50.918;5.338;2022-10-16T14:22:36;19.90;99.90
40828;DHT22;26549;50.918;5.338;2022-10-16T14:25:23;19.90;99.90
40828;DHT22;26549;50.918;5.338;2022-10-16T14:28:01;19.80;99.90
40828;DHT22;26549;50.918;5.338;2022-10-16T14:30:28;19.80;99.90
40828;DHT22;26549;50.918;5.338;2022-10-16T14:32:57;19.80;99.90
40828;DHT22;26549;50.918;5.338;2022-10-16T14:35:34;19.70;99.90
40828;DHT22;26549;50.918;5.338;2022-10-16T14:38:03;19.70;99.90
40828;DHT22;26549;50.918;5.338;2022-10-16T14:40:32;19.70;99.90
40828;DHT22;26549;50.918;5.338;2022-10-16T14:42:59;19.60;99.90
40828;DHT22;26549;50.918;5.338;2022-10-16T14:45:31;19.60;99.90
40828;DHT22;26549;50.918;5.338;2022-10-16T14:48:00;19.50;99.90
40828;DHT22;26549;50.918;5.338;2022-10-16T14:50:27;19.40;99.90
40828;DHT22;26549;50.918;5.338;2022-10-16T14:52:55;19.30;99.90
40828;DHT22;26549;50.918;5.338;2022-10-16T14:55:21;19.40;99.90
40828;DHT22;26549;50.918;5.338;2022-10-16T14:57:47;19.60;99.90
40828;DHT22;26549;50.918;5.338;2022-10-16T15:00:19;19.70;99.90
40828;DHT22;26549;50.918;5.338;2022-10-16T15:02:47;19.70;99.90
40828;DHT22;26549;50.918;5.338;2022-10-16T15:05:19;19.80;99.90
40828;DHT22;26549;50.918;5.338;2022-10-16T15:07:46;19.90;99.90
40828;DHT22;26549;50.918;5.338;2022-10-16T15:10:15;19.80;99.90
40828;DHT22;26549;50.918;5.338;2022-10-16T15:12:41;19.90;99.90
40828;DHT22;26549;50.918;5.338;2022-10-16T15:17:55;20.00;99.90
40828;DHT22;26549;50.918;5.338;2022-10-16T15:20:26;20.10;99.90
40828;DHT22;26549;50.918;5.338;2022-10-16T15:22:52;19.80;99.90
40828;DHT22;26549;50.918;5.338;2022-10-16T15:25:37;19.50;99.90
40828;DHT22;26549;50.918;5.338;2022-10-16T15:28:07;19.40;99.90
40828;DHT22;26549;50.918;5.338;2022-10-16T15:30:33;19.50;99.90
40828;DHT22;26549;50.918;5.338;2022-10-16T15:33:00;19.40;99.90
40828;DHT22;26549;50.918;5.338;2022-10-16T15:35:25;19.50;99.90
40828;DHT22;26549;50.918;5.338;2022-10-16T15:37:51;19.50;99.90
40828;DHT22;26549;50.918;5.338;2022-10-16T15:40:18;19.30;99.90
40828;DHT22;26549;50.918;5.338;2022-10-16T15:42:45;19.30;99.90
40828;DHT22;26549;50.918;5.338;2022-10-16T15:45:12;19.20;99.90
40828;DHT22;26549;50.918;5.338;2022-10-16T15:47:41;19.10;99.90
40828;DHT22;26549;50.918;5.338;2022-10-16T15:50:09;19.00;99.90
40828;DHT22;26549;50.918;5.338;2022-10-16T15:52:34;18.90;99.90
40828;DHT22;26549;50.918;5.338;2022-10-16T15:55:03;18.80;99.90
40828;DHT22;26549;50.918;5.338;2022-10-16T15:57:29;18.90;99.90
40828;DHT22;26549;50.918;5.338;2022-10-16T15:59:55;19.10;99.90
40828;DHT22;26549;50.918;5.338;2022-10-16T16:02:21;18.90;99.90
40828;DHT22;26549;50.918;5.338;2022-10-16T16:04:47;18.90;99.90
40828;DHT22;26549;50.918;5.338;2022-10-16T16:07:13;18.70;99.90
40828;DHT22;26549;50.918;5.338;2022-10-16T16:09:39;18.80;99.90
40828;DHT22;26549;50.918;5.338;2022-10-16T16:12:04;18.70;99.90
40828;DHT22;26549;50.918;5.338;2022-10-16T16:14:30;18.50;99.90
40828;DHT22;26549;50.918;5.338;2022-10-16T16:16:57;18.70;99.90
40828;DHT22;26549;50.918;5.338;2022-10-16T16:19:23;18.70;99.90
40828;DHT22;26549;50.918;5.338;2022-10-16T16:21:50;18.80;99.90
40828;DHT22;26549;50.918;5.338;2022-10-16T16:24:16;18.70;99.90
40828;DHT22;26549;50.918;5.338;2022-10-16T16:26:42;18.70;99.90
40828;DHT22;26549;50.918;5.338;2022-10-16T16:29:12;18.60;99.90
40828;DHT22;26549;50.918;5.338;2022-10-16T16:31:39;18.50;99.90
40828;DHT22;26549;50.918;5.338;2022-10-16T16:34:06;18.60;99.90
40828;DHT22;26549;50.918;5.338;2022-10-16T16:36:35;18.50;99.90
40828;DHT22;26549;50.918;5.338;2022-10-16T16:39:01;18.40;99.90
40828;DHT22;26549;50.918;5.338;2022-10-16T16:41:29;18.40;99.90
40828;DHT22;26549;50.918;5.338;2022-10-16T16:44:05;18.30;99.90
40828;DHT22;26549;50.918;5.338;2022-10-16T16:46:34;18.30;99.90
40828;DHT22;26549;50.918;5.338;2022-10-16T16:49:01;18.20;99.90
40828;DHT22;26549;50.918;5.338;2022-10-16T16:51:28;18.30;99.90
40828;DHT22;26549;50.918;5.338;2022-10-16T16:53:55;18.40;99.90
40828;DHT22;26549;50.918;5.338;2022-10-16T16:56:23;18.40;99.90
40828;DHT22;26549;50.918;5.338;2022-10-16T16:58:50;18.40;99.90
40828;DHT22;26549;50.918;5.338;2022-10-16T17:01:17;18.40;99.90
40828;DHT22;26549;50.918;5.338;2022-10-16T17:03:47;18.30;99.90
40828;DHT22;26549;50.918;5.338;2022-10-16T17:06:21;18.20;99.90
40828;DHT22;26549;50.918;5.338;2022-10-16T17:08:49;18.10;99.90
40828;DHT22;26549;50.918;5.338;2022-10-16T17:11:20;18.30;99.90
40828;DHT22;26549;50.918;5.338;2022-10-16T17:13:47;18.30;99.90
40828;DHT22;26549;50.918;5.338;2022-10-16T17:16:13;18.20;99.90
40828;DHT22;26549;50.918;5.338;2022-10-16T17:18:39;18.00;99.90
40828;DHT22;26549;50.918;5.338;2022-10-16T17:21:07;17.90;99.90
40828;DHT22;26549;50.918;5.338;2022-10-16T17:23:34;18.00;99.90
40828;DHT22;26549;50.918;5.338;2022-10-16T17:26:10;18.00;99.90
40828;DHT22;26549;50.918;5.338;2022-10-16T17:28:36;18.00;99.90
40828;DHT22;26549;50.918;5.338;2022-10-16T17:31:14;17.90;99.90
40828;DHT22;26549;50.918;5.338;2022-10-16T17:33:41;17.90;99.90
40828;DHT22;26549;50.918;5.338;2022-10-16T17:36:07;17.90;99.90
40828;DHT22;26549;50.918;5.338;2022-10-16T17:38:34;18.00;99.90
40828;DHT22;26549;50.918;5.338;2022-10-16T17:41:15;18.10;99.90
40828;DHT22;26549;50.918;5.338;2022-10-16T17:43:41;18.00;99.90
40828;DHT22;26549;50.918;5.338;2022-10-16T17:46:08;18.00;99.90
40828;DHT22;26549;50.918;5.338;2022-10-16T17:48:38;18.00;99.90
40828;DHT22;26549;50.918;5.338;2022-10-16T17:51:06;17.80;99.90